createdAt,value
2018-04-15T00:00:00.828Z,10.76
2018-04-15T00:01:01.016Z,10.70
2018-04-15T00:02:01.207Z,10.76
2018-04-15T00:03:01.392Z,10.78
2018-04-15T00:04:01.578Z,10.70
2018-04-15T00:05:01.766Z,10.68
2018-04-15T00:06:01.953Z,10.75
2018-04-15T00:07:02.140Z,10.70
2018-04-15T00:08:02.326Z,10.75
2018-04-15T00:09:02.514Z,10.85
2018-04-15T00:10:02.702Z,10.76
2018-04-15T00:11:02.888Z,10.76
2018-04-15T00:12:03.074Z,10.78
2018-04-15T00:13:03.261Z,10.64
2018-04-15T00:14:03.447Z,10.76
2018-04-15T00:15:03.639Z,10.65
2018-04-15T00:16:03.820Z,10.60
2018-04-15T00:17:04.008Z,10.65
2018-04-15T00:18:04.197Z,10.58
2018-04-15T00:19:04.383Z,10.61
2018-04-15T00:20:04.572Z,10.57
2018-04-15T00:21:04.758Z,10.54
2018-04-15T00:22:04.946Z,10.48
2018-04-15T00:23:05.132Z,10.55
2018-04-15T00:24:05.319Z,10.58
2018-04-15T00:25:05.743Z,10.55
2018-04-15T00:26:05.861Z,10.60
2018-04-15T00:27:05.928Z,10.55
2018-04-15T00:28:06.110Z,10.54
2018-04-15T00:29:06.298Z,10.62
2018-04-15T00:30:06.485Z,10.60
2018-04-15T00:31:06.672Z,10.67
2018-04-15T00:32:06.861Z,10.62
2018-04-15T00:33:07.049Z,10.75
2018-04-15T00:34:07.236Z,10.60
2018-04-15T00:35:07.423Z,10.67
2018-04-15T00:36:07.612Z,10.60
2018-04-15T00:37:07.797Z,10.64
2018-04-15T00:38:07.986Z,10.60
2018-04-15T00:39:08.173Z,10.64
2018-04-15T00:40:08.360Z,10.64
2018-04-15T00:41:08.544Z,10.57
2018-04-15T00:42:08.733Z,10.60
2018-04-15T00:43:08.922Z,10.57
2018-04-15T00:44:09.107Z,10.48
2018-04-15T00:45:09.295Z,10.49
2018-04-15T00:46:09.482Z,10.46
2018-04-15T00:47:09.670Z,10.57
2018-04-15T00:48:09.857Z,10.54
2018-04-15T00:49:10.045Z,10.60
2018-04-15T00:50:10.234Z,10.49
2018-04-15T00:51:10.422Z,10.52
2018-04-15T00:52:10.610Z,10.52
2018-04-15T00:53:10.794Z,10.52
2018-04-15T00:54:10.983Z,10.62
2018-04-15T00:55:11.169Z,10.65
2018-04-15T00:56:11.356Z,10.57
2018-04-15T00:57:11.542Z,10.64
2018-04-15T00:58:11.732Z,10.75
2018-04-15T00:59:11.923Z,10.62
2018-04-15T01:00:12.106Z,10.72
2018-04-15T01:01:12.294Z,10.76
2018-04-15T01:02:12.481Z,10.67
2018-04-15T01:03:12.673Z,10.65
2018-04-15T01:04:12.852Z,10.61
2018-04-15T01:05:13.034Z,10.67
2018-04-15T01:06:13.227Z,10.62
2018-04-15T01:07:13.413Z,10.64
2018-04-15T01:08:13.599Z,10.60
2018-04-15T01:09:13.788Z,10.64
2018-04-15T01:10:13.976Z,10.62
2018-04-15T01:11:14.164Z,10.55
2018-04-15T01:12:14.351Z,10.55
2018-04-15T01:13:14.537Z,10.55
2018-04-15T01:14:14.726Z,10.67
2018-04-15T01:15:14.913Z,10.60
2018-04-15T01:16:15.099Z,10.60
2018-04-15T01:17:15.286Z,10.65
2018-04-15T01:18:15.474Z,10.76
2018-04-15T01:19:15.661Z,10.68
2018-04-15T01:20:15.848Z,10.70
2018-04-15T01:21:16.039Z,10.72
2018-04-15T01:22:16.220Z,10.70
2018-04-15T01:23:16.406Z,10.68
2018-04-15T01:24:16.593Z,10.62
2018-04-15T01:25:16.779Z,10.61
2018-04-15T01:26:16.966Z,10.60
2018-04-15T01:27:17.153Z,10.62
2018-04-15T01:28:17.339Z,10.58
2018-04-15T01:29:17.527Z,10.58
2018-04-15T01:30:17.714Z,10.48
2018-04-15T01:31:17.901Z,10.57
2018-04-15T01:32:18.088Z,10.46
2018-04-15T01:33:18.276Z,10.48
2018-04-15T01:34:18.463Z,10.52
2018-04-15T01:35:18.651Z,10.39
2018-04-15T01:36:18.842Z,10.42
2018-04-15T01:37:19.027Z,10.43
2018-04-15T01:38:19.213Z,10.49
2018-04-15T01:39:19.399Z,10.42
2018-04-15T01:40:19.587Z,10.42
2018-04-15T01:41:19.774Z,10.43
2018-04-15T01:42:19.963Z,10.45
2018-04-15T01:43:20.148Z,10.48
2018-04-15T01:44:20.337Z,10.35
2018-04-15T01:45:20.526Z,10.46
2018-04-15T01:46:20.714Z,10.36
2018-04-15T01:47:20.902Z,10.41
2018-04-15T01:48:21.090Z,10.48
2018-04-15T01:49:21.277Z,10.42
2018-04-15T01:50:21.464Z,10.38
2018-04-15T01:51:21.652Z,10.42
2018-04-15T01:52:21.838Z,10.38
2018-04-15T01:53:22.027Z,10.34
2018-04-15T01:54:22.213Z,10.36
2018-04-15T01:55:22.402Z,10.35
2018-04-15T01:56:22.589Z,10.36
2018-04-15T01:57:22.778Z,10.46
2018-04-15T01:58:22.963Z,10.39
2018-04-15T01:59:23.153Z,10.34
2018-04-15T02:00:23.337Z,10.34
2018-04-15T02:01:23.530Z,10.34
2018-04-15T02:02:23.712Z,10.35
2018-04-15T02:03:23.901Z,10.28
2018-04-15T02:04:24.092Z,10.26
2018-04-15T02:05:24.275Z,10.34
2018-04-15T02:06:24.463Z,10.38
2018-04-15T02:07:24.655Z,10.35
2018-04-15T02:08:24.838Z,10.34
2018-04-15T02:09:25.028Z,10.31
2018-04-15T02:10:25.214Z,10.31
2018-04-15T02:11:25.403Z,10.36
2018-04-15T02:12:25.591Z,10.35
2018-04-15T02:13:25.779Z,10.46
2018-04-15T02:14:25.966Z,10.45
2018-04-15T02:15:26.152Z,10.45
2018-04-15T02:16:26.342Z,10.31
2018-04-15T02:17:26.530Z,10.41
2018-04-15T02:18:26.717Z,10.39
2018-04-15T02:19:26.905Z,10.45
2018-04-15T02:20:27.090Z,10.57
2018-04-15T02:21:27.277Z,10.57
2018-04-15T02:22:27.465Z,10.54
2018-04-15T02:23:27.654Z,10.52
2018-04-15T02:24:27.838Z,10.54
2018-04-15T02:25:28.025Z,10.49
2018-04-15T02:26:28.214Z,10.54
2018-04-15T02:27:28.401Z,10.45
2018-04-15T02:28:28.592Z,10.46
2018-04-15T02:29:28.779Z,10.55
2018-04-15T02:30:28.967Z,10.58
2018-04-15T02:31:29.155Z,10.57
2018-04-15T02:32:29.343Z,10.64
2018-04-15T02:33:29.531Z,10.62
2018-04-15T02:34:29.784Z,10.55
2018-04-15T02:35:29.907Z,10.57
2018-04-15T02:36:30.096Z,10.46
2018-04-15T02:37:30.282Z,10.54
2018-04-15T02:38:30.470Z,10.43
2018-04-15T02:39:30.658Z,10.52
2018-04-15T02:40:30.845Z,10.43
2018-04-15T02:41:31.032Z,10.38
2018-04-15T02:42:31.220Z,10.46
2018-04-15T02:43:31.407Z,10.39
2018-04-15T02:44:31.592Z,10.48
2018-04-15T02:45:31.782Z,10.43
2018-04-15T02:46:31.969Z,10.42
2018-04-15T02:47:32.157Z,10.43
2018-04-15T02:48:32.344Z,10.42
2018-04-15T02:49:32.538Z,10.36
2018-04-15T02:50:32.721Z,10.36
2018-04-15T02:51:32.907Z,10.34
2018-04-15T02:52:33.094Z,10.39
2018-04-15T02:53:33.281Z,10.26
2018-04-15T02:54:33.468Z,10.20
2018-04-15T02:55:33.655Z,10.26
2018-04-15T02:56:33.845Z,10.16
2018-04-15T02:57:34.033Z,10.16
2018-04-15T02:58:34.221Z,10.16
2018-04-15T02:59:34.412Z,10.17
2018-04-15T03:00:34.604Z,10.10
2018-04-15T03:01:34.786Z,10.03
2018-04-15T03:02:34.972Z,10.01
2018-04-15T03:03:35.159Z,9.94
2018-04-15T03:04:35.349Z,9.94
2018-04-15T03:05:35.536Z,9.93
2018-04-15T03:06:35.723Z,9.93
2018-04-15T03:07:35.910Z,9.99
2018-04-15T03:08:36.098Z,9.93
2018-04-15T03:09:36.289Z,9.78
2018-04-15T03:10:36.471Z,9.72
2018-04-15T03:11:36.662Z,9.65
2018-04-15T03:12:36.847Z,9.62
2018-04-15T03:13:37.035Z,9.54
2018-04-15T03:14:37.224Z,9.47
2018-04-15T03:15:37.412Z,9.45
2018-04-15T03:16:37.601Z,9.44
2018-04-15T03:17:37.786Z,9.51
2018-04-15T03:18:37.973Z,9.45
2018-04-15T03:19:38.160Z,9.52
2018-04-15T03:20:38.348Z,9.52
2018-04-15T03:21:38.535Z,9.57
2018-04-15T03:22:38.723Z,9.57
2018-04-15T03:23:38.909Z,9.54
2018-04-15T03:24:39.097Z,9.55
2018-04-15T03:25:39.286Z,9.59
2018-04-15T03:26:39.469Z,9.57
2018-04-15T03:27:39.659Z,9.51
2018-04-15T03:28:39.844Z,9.42
2018-04-15T03:29:40.031Z,9.47
2018-04-15T03:30:40.221Z,9.48
2018-04-15T03:31:40.411Z,9.55
2018-04-15T03:32:40.591Z,9.54
2018-04-15T03:33:40.779Z,9.51
2018-04-15T03:34:40.966Z,9.44
2018-04-15T03:35:41.154Z,9.57
2018-04-15T03:36:41.342Z,9.55
2018-04-15T03:37:41.528Z,9.55
2018-04-15T03:38:41.718Z,9.51
2018-04-15T03:39:41.903Z,9.65
2018-04-15T03:40:42.091Z,9.59
2018-04-15T03:41:42.279Z,9.55
2018-04-15T03:42:42.465Z,9.57
2018-04-15T03:43:42.653Z,9.51
2018-04-15T03:44:42.841Z,9.47
2018-04-15T03:45:43.030Z,9.42
2018-04-15T03:46:43.218Z,9.47
2018-04-15T03:47:43.405Z,9.50
2018-04-15T03:48:43.593Z,9.51
2018-04-15T03:49:43.782Z,9.50
2018-04-15T03:50:43.962Z,9.52
2018-04-15T03:51:44.161Z,9.37
2018-04-15T03:52:44.338Z,9.41
2018-04-15T03:53:44.523Z,9.40
2018-04-15T03:54:44.708Z,9.33
2018-04-15T03:55:44.901Z,9.44
2018-04-15T03:56:45.083Z,9.45
2018-04-15T03:57:45.271Z,9.42
2018-04-15T03:58:45.456Z,9.42
2018-04-15T03:59:45.645Z,9.34
2018-04-15T04:00:45.834Z,9.30
2018-04-15T04:01:46.021Z,9.34
2018-04-15T04:02:46.207Z,9.41
2018-04-15T04:03:46.394Z,9.37
2018-04-15T04:04:46.580Z,9.30
2018-04-15T04:05:46.766Z,9.30
2018-04-15T04:06:46.953Z,9.36
2018-04-15T04:07:47.139Z,9.48
2018-04-15T04:08:47.326Z,9.44
2018-04-15T04:09:47.513Z,9.36
2018-04-15T04:10:47.700Z,9.37
2018-04-15T04:11:47.887Z,9.40
2018-04-15T04:12:48.076Z,9.40
2018-04-15T04:13:48.260Z,9.44
2018-04-15T04:14:48.446Z,9.26
2018-04-15T04:15:48.636Z,9.30
2018-04-15T04:16:48.825Z,9.26
2018-04-15T04:17:49.006Z,9.26
2018-04-15T04:18:49.193Z,9.29
2018-04-15T04:19:49.380Z,9.34
2018-04-15T04:20:49.568Z,9.26
2018-04-15T04:21:49.755Z,9.26
2018-04-15T04:22:49.943Z,9.23
2018-04-15T04:23:50.130Z,9.27
2018-04-15T04:24:50.316Z,9.22
2018-04-15T04:25:50.502Z,9.19
2018-04-15T04:26:50.690Z,9.18
2018-04-15T04:27:50.876Z,9.11
2018-04-15T04:28:51.063Z,9.16
2018-04-15T04:29:51.249Z,9.16
2018-04-15T04:30:51.436Z,9.16
2018-04-15T04:31:51.624Z,9.06
2018-04-15T04:32:51.811Z,9.06
2018-04-15T04:33:51.998Z,9.08
2018-04-15T04:34:52.186Z,9.06
2018-04-15T04:35:52.374Z,9.16
2018-04-15T04:36:52.560Z,9.18
2018-04-15T04:37:52.747Z,9.19
2018-04-15T04:38:52.935Z,9.33
2018-04-15T04:39:53.120Z,9.27
2018-04-15T04:40:53.308Z,9.34
2018-04-15T04:41:53.495Z,9.40
2018-04-15T04:42:53.684Z,9.32
2018-04-15T04:43:53.871Z,9.36
2018-04-15T04:44:54.057Z,9.26
2018-04-15T04:45:54.243Z,9.40
2018-04-15T04:46:54.429Z,9.30
2018-04-15T04:47:54.617Z,9.40
2018-04-15T04:48:54.802Z,9.45
2018-04-15T04:49:54.992Z,9.41
2018-04-15T04:50:55.177Z,9.42
2018-04-15T04:51:55.363Z,9.42
2018-04-15T04:52:55.550Z,9.45
2018-04-15T04:53:55.737Z,9.55
2018-04-15T04:54:55.926Z,9.54
2018-04-15T04:55:56.114Z,9.57
2018-04-15T04:56:56.301Z,9.50
2018-04-15T04:57:56.486Z,9.60
2018-04-15T04:58:56.677Z,9.62
2018-04-15T04:59:56.857Z,9.69
2018-04-15T05:00:57.043Z,9.73
2018-04-15T05:01:57.231Z,9.72
2018-04-15T05:02:57.423Z,9.72
2018-04-15T05:03:57.605Z,9.78
2018-04-15T05:04:57.793Z,9.81
2018-04-15T05:05:57.981Z,9.88
2018-04-15T05:06:58.171Z,9.88
2018-04-15T05:07:58.357Z,9.98
2018-04-15T05:08:58.545Z,10.05
2018-04-15T05:09:58.731Z,10.02
2018-04-15T05:10:58.917Z,10.10
2018-04-15T05:11:59.104Z,10.06
2018-04-15T05:12:59.294Z,10.18
2018-04-15T05:13:59.479Z,10.20
2018-04-15T05:14:59.663Z,10.12
2018-04-15T05:15:59.851Z,10.24
2018-04-15T05:17:00.039Z,10.35
2018-04-15T05:18:00.224Z,10.34
2018-04-15T05:19:00.413Z,10.42
2018-04-15T05:20:00.601Z,10.34
2018-04-15T05:21:00.785Z,10.45
2018-04-15T05:22:00.973Z,10.45
2018-04-15T05:23:01.161Z,10.43
2018-04-15T05:24:01.349Z,10.38
2018-04-15T05:25:01.537Z,10.41
2018-04-15T05:26:01.727Z,10.49
2018-04-15T05:27:01.954Z,10.61
2018-04-15T05:28:02.101Z,10.68
2018-04-15T05:29:02.287Z,10.72
2018-04-15T05:30:02.496Z,10.72
2018-04-15T05:31:02.660Z,10.83
2018-04-15T05:32:02.848Z,10.86
2018-04-15T05:33:03.034Z,11.01
2018-04-15T05:34:03.221Z,11.00
2018-04-15T05:35:03.440Z,11.12
2018-04-15T05:36:03.627Z,11.16
2018-04-15T05:37:03.818Z,11.28
2018-04-15T05:38:04.001Z,11.22
2018-04-15T05:39:04.188Z,11.34
2018-04-15T05:40:04.375Z,11.43
2018-04-15T05:41:04.562Z,11.52
2018-04-15T05:42:04.750Z,11.51
2018-04-15T05:43:04.936Z,11.64
2018-04-15T05:44:05.125Z,11.71
2018-04-15T05:45:05.315Z,11.70
2018-04-15T05:46:05.505Z,11.93
2018-04-15T05:47:05.690Z,12.10
2018-04-15T05:48:05.879Z,11.95
2018-04-15T05:49:06.068Z,11.91
2018-04-15T05:50:06.254Z,12.17
2018-04-15T05:51:06.439Z,12.23
2018-04-15T05:52:06.629Z,12.33
2018-04-15T05:53:06.816Z,12.51
2018-04-15T05:54:07.003Z,12.48
2018-04-15T05:55:07.191Z,12.48
2018-04-15T05:56:07.380Z,12.51
2018-04-15T05:57:07.568Z,12.68
2018-04-15T05:58:07.756Z,12.51
2018-04-15T05:59:07.943Z,12.30
2018-04-15T06:00:08.133Z,12.08
2018-04-15T06:01:08.323Z,11.62
2018-04-15T06:02:08.517Z,11.31
2018-04-15T06:03:08.700Z,11.18
2018-04-15T06:04:08.888Z,11.11
2018-04-15T06:05:09.079Z,11.09
2018-04-15T06:06:09.270Z,11.13
2018-04-15T06:07:09.456Z,11.19
2018-04-15T06:08:09.644Z,11.16
2018-04-15T06:09:09.832Z,11.16
2018-04-15T06:10:10.022Z,11.22
2018-04-15T06:11:10.209Z,11.22
2018-04-15T06:12:10.396Z,11.19
2018-04-15T06:13:10.586Z,11.19
2018-04-15T06:14:10.775Z,11.23
2018-04-15T06:15:10.963Z,11.30
2018-04-15T06:16:11.152Z,11.40
2018-04-15T06:17:11.342Z,11.43
2018-04-15T06:18:11.529Z,11.31
2018-04-15T06:19:11.720Z,11.19
2018-04-15T06:20:11.910Z,11.18
2018-04-15T06:21:12.100Z,11.18
2018-04-15T06:22:12.288Z,11.18
2018-04-15T06:23:12.474Z,11.19
2018-04-15T06:24:12.664Z,11.20
2018-04-15T06:25:12.853Z,11.18
2018-04-15T06:26:13.042Z,11.23
2018-04-15T06:27:13.231Z,11.19
2018-04-15T06:28:13.419Z,11.36
2018-04-15T06:29:13.609Z,11.48
2018-04-15T06:30:13.800Z,11.48
2018-04-15T06:31:13.989Z,11.52
2018-04-15T06:32:14.179Z,11.49
2018-04-15T06:33:14.369Z,11.67
2018-04-15T06:34:14.562Z,11.84
2018-04-15T06:35:14.746Z,11.89
2018-04-15T06:36:14.935Z,12.11
2018-04-15T06:37:15.124Z,12.26
2018-04-15T06:38:15.314Z,12.50
2018-04-15T06:39:15.501Z,12.73
2018-04-15T06:40:15.689Z,12.84
2018-04-15T06:41:15.877Z,13.11
2018-04-15T06:42:16.067Z,13.32
2018-04-15T06:43:16.257Z,13.46
2018-04-15T06:44:16.447Z,13.67
2018-04-15T06:45:16.700Z,13.75
2018-04-15T06:46:16.824Z,13.85
2018-04-15T06:47:17.015Z,13.88
2018-04-15T06:48:17.205Z,14.04
2018-04-15T06:49:17.409Z,14.00
2018-04-15T06:50:17.584Z,13.94
2018-04-15T06:51:17.774Z,13.80
2018-04-15T06:52:17.994Z,13.85
2018-04-15T06:53:18.158Z,13.82
2018-04-15T06:54:18.346Z,13.83
2018-04-15T06:55:18.536Z,13.90
2018-04-15T06:56:18.725Z,13.79
2018-04-15T06:57:18.922Z,13.80
2018-04-15T06:58:19.103Z,13.85
2018-04-15T06:59:19.295Z,13.78
2018-04-15T07:00:19.489Z,13.83
2018-04-15T07:01:19.674Z,13.82
2018-04-15T07:02:19.867Z,13.78
2018-04-15T07:03:20.055Z,13.75
2018-04-15T07:04:20.245Z,13.68
2018-04-15T07:05:20.437Z,13.83
2018-04-15T07:06:20.625Z,13.93
2018-04-15T07:07:20.817Z,13.93
2018-04-15T07:08:21.008Z,13.97
2018-04-15T07:09:21.196Z,13.94
2018-04-15T07:10:21.386Z,14.01
2018-04-15T07:11:21.575Z,13.93
2018-04-15T07:12:21.765Z,13.93
2018-04-15T07:13:21.958Z,13.90
2018-04-15T07:14:22.145Z,13.83
2018-04-15T07:15:22.334Z,13.90
2018-04-15T07:16:22.528Z,13.82
2018-04-15T07:17:22.718Z,13.80
2018-04-15T07:18:22.905Z,13.79
2018-04-15T07:19:23.097Z,13.79
2018-04-15T07:20:23.289Z,13.79
2018-04-15T07:21:23.475Z,13.67
2018-04-15T07:22:23.665Z,13.75
2018-04-15T07:23:23.858Z,13.76
2018-04-15T07:24:24.046Z,13.85
2018-04-15T07:25:24.237Z,13.79
2018-04-15T07:26:24.427Z,13.85
2018-04-15T07:27:24.616Z,13.65
2018-04-15T07:28:24.806Z,13.86
2018-04-15T07:29:24.994Z,13.83
2018-04-15T07:30:25.202Z,13.86
2018-04-15T07:31:25.373Z,13.78
2018-04-15T07:32:25.562Z,14.01
2018-04-15T07:33:25.754Z,14.15
2018-04-15T07:34:25.940Z,14.23
2018-04-15T07:35:26.130Z,13.97
2018-04-15T07:36:26.388Z,13.78
2018-04-15T07:37:26.509Z,13.51
2018-04-15T07:38:26.703Z,13.30
2018-04-15T07:39:26.889Z,13.23
2018-04-15T07:40:27.082Z,13.13
2018-04-15T07:41:27.273Z,12.93
2018-04-15T07:42:27.462Z,12.81
2018-04-15T07:43:27.649Z,12.83
2018-04-15T07:44:27.838Z,12.83
2018-04-15T07:45:28.026Z,12.83
2018-04-15T07:46:28.216Z,12.95
2018-04-15T07:47:28.407Z,13.20
2018-04-15T07:48:28.596Z,13.19
2018-04-15T07:49:28.786Z,13.17
2018-04-15T07:50:29.022Z,13.32
2018-04-15T07:51:29.165Z,13.36
2018-04-15T07:52:29.355Z,13.32
2018-04-15T07:53:29.546Z,13.54
2018-04-15T07:54:29.735Z,13.68
2018-04-15T07:55:29.927Z,13.79
2018-04-15T07:56:30.117Z,13.76
2018-04-15T07:57:30.306Z,14.28
2018-04-15T07:58:30.496Z,14.53
2018-04-15T07:59:30.688Z,14.74
2018-04-15T08:00:30.880Z,15.08
2018-04-15T08:01:31.076Z,14.95
2018-04-15T08:02:31.263Z,14.71
2018-04-15T08:03:31.454Z,14.69
2018-04-15T08:04:31.645Z,14.51
2018-04-15T08:05:31.837Z,14.56
2018-04-15T08:06:32.027Z,14.44
2018-04-15T08:07:32.220Z,14.37
2018-04-15T08:08:32.409Z,14.48
2018-04-15T08:09:32.603Z,14.69
2018-04-15T08:10:32.794Z,14.59
2018-04-15T08:11:32.983Z,14.53
2018-04-15T08:12:33.175Z,14.41
2018-04-15T08:13:33.366Z,14.38
2018-04-15T08:14:33.558Z,14.27
2018-04-15T08:15:33.750Z,14.21
2018-04-15T08:16:33.942Z,14.33
2018-04-15T08:17:34.133Z,14.33
2018-04-15T08:18:34.329Z,14.33
2018-04-15T08:19:34.516Z,14.19
2018-04-15T08:20:34.709Z,14.49
2018-04-15T08:21:34.901Z,14.69
2018-04-15T08:22:35.091Z,14.66
2018-04-15T08:23:35.283Z,14.87
2018-04-15T08:24:35.475Z,14.93
2018-04-15T08:25:35.666Z,15.14
2018-04-15T08:26:35.863Z,14.87
2018-04-15T08:27:36.051Z,14.71
2018-04-15T08:28:36.242Z,14.48
2018-04-15T08:29:36.434Z,14.16
2018-04-15T08:30:36.629Z,14.08
2018-04-15T08:31:36.821Z,14.22
2018-04-15T08:32:37.017Z,14.40
2018-04-15T08:33:37.209Z,14.44
2018-04-15T08:34:37.399Z,14.30
2018-04-15T08:35:37.592Z,14.40
2018-04-15T08:36:37.788Z,14.45
2018-04-15T08:37:37.973Z,14.37
2018-04-15T08:38:38.163Z,14.38
2018-04-15T08:39:38.361Z,14.28
2018-04-15T08:40:38.546Z,14.34
2018-04-15T08:41:38.742Z,14.40
2018-04-15T08:42:38.927Z,14.52
2018-04-15T08:43:39.119Z,14.69
2018-04-15T08:44:39.310Z,14.74
2018-04-15T08:45:39.503Z,14.85
2018-04-15T08:46:39.692Z,14.79
2018-04-15T08:47:39.884Z,14.82
2018-04-15T08:48:40.077Z,14.93
2018-04-15T08:49:40.270Z,15.14
2018-04-15T08:50:40.463Z,15.05
2018-04-15T08:51:40.657Z,15.01
2018-04-15T08:52:40.849Z,15.30
2018-04-15T08:53:41.042Z,15.76
2018-04-15T08:54:41.235Z,15.72
2018-04-15T08:55:41.428Z,16.14
2018-04-15T08:56:41.622Z,16.42
2018-04-15T08:57:41.819Z,16.03
2018-04-15T08:58:42.009Z,16.36
2018-04-15T08:59:42.201Z,16.00
2018-04-15T09:00:42.418Z,16.36
2018-04-15T09:01:42.585Z,15.72
2018-04-15T09:02:42.777Z,15.65
2018-04-15T09:03:42.971Z,15.19
2018-04-15T09:04:43.165Z,14.97
2018-04-15T09:05:43.359Z,14.97
2018-04-15T09:06:43.552Z,15.19
2018-04-15T09:07:43.745Z,14.87
2018-04-15T09:08:43.937Z,14.78
2018-04-15T09:09:44.157Z,14.97
2018-04-15T09:10:44.339Z,15.11
2018-04-15T09:11:44.535Z,14.96
2018-04-15T09:12:44.722Z,15.48
2018-04-15T09:13:44.914Z,15.54
2018-04-15T09:14:45.106Z,15.50
2018-04-15T09:15:45.297Z,15.45
2018-04-15T09:16:45.490Z,15.48
2018-04-15T09:17:45.683Z,15.38
2018-04-15T09:18:45.874Z,15.36
2018-04-15T09:19:46.068Z,15.38
2018-04-15T09:20:46.261Z,15.72
2018-04-15T09:21:46.456Z,15.96
2018-04-15T09:22:46.647Z,15.99
2018-04-15T09:23:46.843Z,16.17
2018-04-15T09:24:47.037Z,16.40
2018-04-15T09:25:47.228Z,16.57
2018-04-15T09:26:47.421Z,16.22
2018-04-15T09:27:47.615Z,16.05
2018-04-15T09:28:47.808Z,15.81
2018-04-15T09:29:48.003Z,15.88
2018-04-15T09:30:48.197Z,16.32
2018-04-15T09:31:48.393Z,16.33
2018-04-15T09:32:48.584Z,16.37
2018-04-15T09:33:48.776Z,17.04
2018-04-15T09:34:48.970Z,16.59
2018-04-15T09:35:49.169Z,16.61
2018-04-15T09:36:49.356Z,16.33
2018-04-15T09:37:49.551Z,16.33
2018-04-15T09:38:49.745Z,16.13
2018-04-15T09:39:49.940Z,16.43
2018-04-15T09:40:50.134Z,16.76
2018-04-15T09:41:50.329Z,17.20
2018-04-15T09:42:50.524Z,16.98
2018-04-15T09:43:50.759Z,16.73
2018-04-15T09:44:50.918Z,17.10
2018-04-15T09:45:51.107Z,17.43
2018-04-15T09:46:51.300Z,17.30
2018-04-15T09:47:51.495Z,16.98
2018-04-15T09:48:51.689Z,16.77
2018-04-15T09:49:51.883Z,16.72
2018-04-15T09:50:52.078Z,16.54
2018-04-15T09:51:52.272Z,16.95
2018-04-15T09:52:52.465Z,16.98
2018-04-15T09:53:52.658Z,17.46
2018-04-15T09:54:52.852Z,17.62
2018-04-15T09:55:53.047Z,17.62
2018-04-15T09:56:53.239Z,18.15
2018-04-15T09:57:53.432Z,17.31
2018-04-15T09:58:53.627Z,17.66
2018-04-15T09:59:53.824Z,17.27
2018-04-15T10:00:54.014Z,17.16
2018-04-15T10:01:54.209Z,17.45
2018-04-15T10:02:54.404Z,17.62
2018-04-15T10:03:54.597Z,17.57
2018-04-15T10:04:54.793Z,17.71
2018-04-15T10:05:54.987Z,17.49
2018-04-15T10:06:55.179Z,17.63
2018-04-15T10:07:55.376Z,17.46
2018-04-15T10:08:55.574Z,17.43
2018-04-15T10:09:55.764Z,17.12
2018-04-15T10:10:55.960Z,17.10
2018-04-15T10:11:56.150Z,17.02
2018-04-15T10:12:56.345Z,17.17
2018-04-15T10:13:56.537Z,17.06
2018-04-15T10:14:56.733Z,17.49
2018-04-15T10:15:56.926Z,17.68
2018-04-15T10:16:57.163Z,17.76
2018-04-15T10:17:57.355Z,18.11
2018-04-15T10:18:57.505Z,18.13
2018-04-15T10:19:57.700Z,17.76
2018-04-15T10:20:57.895Z,17.30
2018-04-15T10:21:58.088Z,17.27
2018-04-15T10:22:58.284Z,17.16
2018-04-15T10:23:58.534Z,17.35
2018-04-15T10:24:58.670Z,17.68
2018-04-15T10:25:58.863Z,17.79
2018-04-15T10:26:59.060Z,18.09
2018-04-15T10:27:59.251Z,18.09
2018-04-15T10:28:59.444Z,18.28
2018-04-15T10:29:59.637Z,18.85
2018-04-15T10:30:59.831Z,18.96
2018-04-15T10:32:00.029Z,18.13
2018-04-15T10:33:00.220Z,17.57
2018-04-15T10:34:00.414Z,17.45
2018-04-15T10:35:00.611Z,17.53
2018-04-15T10:36:00.809Z,17.53
2018-04-15T10:37:00.998Z,17.75
2018-04-15T10:38:01.195Z,17.88
2018-04-15T10:39:01.390Z,17.52
2018-04-15T10:40:01.583Z,17.76
2018-04-15T10:41:01.777Z,17.90
2018-04-15T10:42:01.972Z,17.86
2018-04-15T10:43:02.167Z,18.05
2018-04-15T10:44:02.363Z,18.36
2018-04-15T10:45:02.559Z,18.56
2018-04-15T10:46:02.766Z,19.00
2018-04-15T10:47:02.947Z,19.44
2018-04-15T10:48:03.145Z,19.44
2018-04-15T10:49:03.402Z,19.78
2018-04-15T10:50:03.473Z,20.15
2018-04-15T10:51:03.663Z,20.22
2018-04-15T10:52:03.862Z,19.45
2018-04-15T10:53:04.055Z,18.64
2018-04-15T10:54:04.252Z,18.48
2018-04-15T10:55:04.447Z,18.34
2018-04-15T10:56:04.641Z,18.34
2018-04-15T10:57:04.838Z,18.66
2018-04-15T10:58:05.033Z,18.67
2018-04-15T10:59:05.227Z,18.96
2018-04-15T11:00:05.426Z,19.17
2018-04-15T11:01:05.639Z,18.96
2018-04-15T11:02:05.815Z,18.76
2018-04-15T11:03:06.018Z,18.74
2018-04-15T11:04:06.207Z,18.91
2018-04-15T11:05:06.405Z,18.66
2018-04-15T11:06:06.598Z,18.58
2018-04-15T11:07:06.794Z,18.67
2018-04-15T11:08:06.989Z,19.26
2018-04-15T11:09:07.185Z,19.57
2018-04-15T11:10:07.381Z,19.50
2018-04-15T11:11:07.575Z,19.47
2018-04-15T11:12:07.772Z,19.68
2018-04-15T11:13:07.971Z,19.81
2018-04-15T11:14:08.179Z,20.00
2018-04-15T11:15:08.362Z,20.07
2018-04-15T11:16:08.556Z,19.94
2018-04-15T11:17:08.753Z,19.72
2018-04-15T11:18:08.950Z,19.68
2018-04-15T11:19:09.145Z,19.82
2018-04-15T11:20:09.342Z,19.92
2018-04-15T11:21:09.537Z,19.93
2018-04-15T11:22:09.734Z,20.08
2018-04-15T11:23:09.928Z,20.15
2018-04-15T11:24:10.124Z,20.09
2018-04-15T11:25:10.320Z,20.17
2018-04-15T11:26:10.515Z,19.87
2018-04-15T11:27:10.709Z,19.52
2018-04-15T11:28:10.907Z,19.64
2018-04-15T11:29:11.101Z,19.49
2018-04-15T11:30:11.297Z,19.45
2018-04-15T11:31:11.490Z,19.37
2018-04-15T11:32:11.688Z,19.52
2018-04-15T11:33:11.886Z,19.44
2018-04-15T11:34:12.076Z,19.32
2018-04-15T11:35:12.272Z,19.00
2018-04-15T11:36:12.468Z,19.05
2018-04-15T11:37:12.662Z,19.05
2018-04-15T11:38:12.858Z,18.93
2018-04-15T11:39:13.057Z,18.89
2018-04-15T11:40:13.244Z,18.93
2018-04-15T11:41:13.438Z,19.00
2018-04-15T11:42:13.639Z,18.79
2018-04-15T11:43:13.829Z,18.81
2018-04-15T11:44:14.022Z,18.79
2018-04-15T11:45:14.240Z,18.97
2018-04-15T11:46:14.413Z,18.93
2018-04-15T11:47:14.603Z,19.01
2018-04-15T11:48:14.797Z,19.01
2018-04-15T11:49:14.989Z,18.81
2018-04-15T11:50:15.183Z,18.82
2018-04-15T11:51:15.376Z,18.76
2018-04-15T11:52:15.570Z,18.68
2018-04-15T11:53:15.766Z,18.82
2018-04-15T11:54:15.958Z,18.85
2018-04-15T11:55:16.151Z,18.91
2018-04-15T11:56:16.347Z,18.94
2018-04-15T11:57:16.537Z,19.17
2018-04-15T11:58:16.729Z,19.08
2018-04-15T11:59:16.970Z,19.09
2018-04-15T12:00:17.118Z,19.09
2018-04-15T12:01:17.310Z,18.91
2018-04-15T12:02:17.534Z,18.98
2018-04-15T12:03:17.703Z,19.01
2018-04-15T12:04:17.894Z,19.05
2018-04-15T12:05:18.093Z,19.01
2018-04-15T12:06:18.287Z,18.96
2018-04-15T12:07:18.475Z,18.91
2018-04-15T12:08:18.669Z,19.05
2018-04-15T12:09:18.865Z,19.09
2018-04-15T12:10:19.058Z,19.08
2018-04-15T12:11:19.254Z,19.22
2018-04-15T12:12:19.444Z,19.44
2018-04-15T12:13:19.642Z,19.54
2018-04-15T12:14:19.832Z,19.54
2018-04-15T12:15:20.026Z,19.81
2018-04-15T12:16:20.219Z,20.05
2018-04-15T12:17:20.414Z,20.33
2018-04-15T12:18:20.606Z,20.46
2018-04-15T12:19:20.798Z,20.26
2018-04-15T12:20:20.992Z,20.23
2018-04-15T12:21:21.188Z,20.15
2018-04-15T12:22:21.381Z,19.77
2018-04-15T12:23:21.579Z,19.53
2018-04-15T12:24:21.767Z,19.32
2018-04-15T12:25:21.960Z,19.34
2018-04-15T12:26:22.155Z,19.34
2018-04-15T12:27:22.350Z,19.47
2018-04-15T12:28:22.546Z,19.41
2018-04-15T12:29:22.736Z,19.53
2018-04-15T12:30:22.929Z,19.86
2018-04-15T12:31:23.126Z,20.12
2018-04-15T12:32:23.320Z,20.15
2018-04-15T12:33:23.508Z,19.96
2018-04-15T12:34:23.700Z,19.63
2018-04-15T12:35:23.894Z,19.63
2018-04-15T12:36:24.088Z,19.56
2018-04-15T12:37:24.279Z,19.54
2018-04-15T12:38:24.475Z,19.64
2018-04-15T12:39:24.669Z,19.79
2018-04-15T12:40:24.864Z,19.84
2018-04-15T12:41:25.058Z,19.99
2018-04-15T12:42:25.254Z,20.19
2018-04-15T12:43:25.447Z,20.41
2018-04-15T12:44:25.641Z,20.55
2018-04-15T12:45:25.832Z,20.39
2018-04-15T12:46:26.025Z,20.46
2018-04-15T12:47:26.221Z,20.48
2018-04-15T12:48:26.414Z,20.46
2018-04-15T12:49:26.606Z,20.67
2018-04-15T12:50:26.800Z,20.74
2018-04-15T12:51:26.993Z,20.55
2018-04-15T12:52:27.187Z,20.26
2018-04-15T12:53:27.381Z,20.04
2018-04-15T12:54:27.572Z,20.44
2018-04-15T12:55:27.767Z,20.52
2018-04-15T12:56:27.960Z,20.80
2018-04-15T12:57:28.155Z,20.64
2018-04-15T12:58:28.350Z,21.03